Terminal Aerodrome Forecast
Issued by NWS Cleveland, OH

Home | Current Version | Previous Version | Graphics & Text | Print | Product List | Glossary On
Versions: 1 2 3 4 5 6 7 8 9 10 11 12 13 14 15 16 17 18 19 20 21 22 23
000
FTUS41 KCLE 161100 RRA
TAFYNG
TAF
KYNG 161145Z 1612/1712 12008KT P6SM BKN025 OVC050
      TEMPO 1612/1614 -SHRA SCT025 OVC050
     FM161500 17009KT 5SM -RA BR SCT008 OVC015
     FM161700 20010KT 4SM -SHRA BR OVC008
     FM170500 24011KT 6SM BR OVC008=

USA.gov is the U.S. government's official web portal to all federal, state and local government web resources and services.